Time;durP1;ratioP1;P1;durP2;ratioP2;P2;SDS_P1;SDS_P2;PMS_P1;PMS_P2;Temp;Humidity;BMP_temperature;BMP_pressure;BME280_temperature;BME280_humidity;BME280_pressure;Samples;Min_cycle;Max_cycle;Signal;HPM_P1;HPM_P2
2022/09/04 00:00:07;;;;;;;3.67;1.20;;;;;;;;;;4916340;29;20052;-58
2022/09/04 00:02:36;;;;;;;4.95;1.38;;;;;;;;;;4918185;29;20056;-58
2022/09/04 00:05:12;;;;;;;2.25;1.00;;;;;;;;;;4904300;29;20100;-61
2022/09/04 00:07:58;;;;;;;3.05;1.10;;;;;;;;;;4898544;29;20040;-60
2022/09/04 00:10:36;;;;;;;3.67;1.10;;;;;;;;;;4898527;29;20063;-58
2022/09/04 00:13:02;;;;;;;4.63;1.30;;;;;;;;;;4904077;29;20052;-61
2022/09/04 00:15:35;;;;;;;3.78;1.13;;;;;;;;;;4918298;29;20151;-58
2022/09/04 00:18:10;;;;;;;2.78;1.17;;;;;;;;;;4901380;29;20048;-59
2022/09/04 00:20:36;;;;;;;2.50;1.40;;;;;;;;;;4905541;29;20072;-58
2022/09/04 00:23:11;;;;;;;3.30;1.20;;;;;;;;;;4898458;29;20536;-58
2022/09/04 00:25:43;;;;;;;2.38;1.30;;;;;;;;;;4899645;29;20064;-58
2022/09/04 00:28:31;;;;;;;3.47;1.20;;;;;;;;;;4914581;29;20052;-58
2022/09/04 00:31:14;;;;;;;3.03;1.17;;;;;;;;;;4934620;23;20072;-58
2022/09/04 00:33:47;;;;;;;1.70;1.10;;;;;;;;;;4910104;29;20516;-58
2022/09/04 00:36:14;;;;;;;2.58;1.50;;;;;;;;;;4898429;29;20051;-58
2022/09/04 00:38:53;;;;;;;6.55;1.55;;;;;;;;;;4906998;29;20052;-59
2022/09/04 00:41:29;;;;;;;3.28;1.20;;;;;;;;;;4894866;29;20399;-58
2022/09/04 00:43:55;;;;;;;3.00;1.40;;;;;;;;;;4899251;29;20143;-58
2022/09/04 00:46:40;;;;;;;6.05;1.60;;;;;;;;;;4897689;29;20045;-59
2022/09/04 00:49:10;;;;;;;4.00;1.38;;;;;;;;;;4898202;29;20520;-58
2022/09/04 00:51:46;;;;;;;2.65;1.05;;;;;;;;;;4900176;29;20243;-58
2022/09/04 00:54:18;;;;;;;3.13;1.42;;;;;;;;;;4914012;23;20063;-59
2022/09/04 00:57:05;;;;;;;3.40;1.20;;;16.10;99.90;;;;;;4893982;29;20499;-58
2022/09/04 00:59:49;;;;;;;2.97;1.35;;;;;;;;;;4891024;29;20063;-58
2022/09/04 01:02:15;;;;;;;6.20;1.17;;;;;;;;;;4895711;29;20131;-58
2022/09/04 01:04:43;;;;;;;3.00;1.40;;;;;;;;;;4898210;29;20148;-59
2022/09/04 01:07:29;;;;;;;4.30;1.27;;;;;;;;;;4897931;29;20080;-58
2022/09/04 01:10:03;;;;;;;2.00;1.13;;;;;;;;;;4917575;29;20408;-58
2022/09/04 01:12:37;;;;;;;4.70;1.40;;;;;;;;;;4911338;29;20044;-58
2022/09/04 01:15:13;;;;;;;3.38;1.23;;;;;;;;;;4898282;29;20045;-58
2022/09/04 01:17:42;;;;;;;5.45;1.23;;;;;;;;;;4893888;29;20044;-58
2022/09/04 01:20:20;;;;;;;3.25;1.10;;;;;;;;;;4897430;29;20462;-58
2022/09/04 01:23:04;;;;;;;2.72;1.15;;;;;;;;;;4897682;29;20131;-58
2022/09/04 01:25:48;;;;;;;4.18;1.27;;;;;;;;;;4924063;29;20048;-58
2022/09/04 01:28:20;;;;;;;3.33;1.17;;;;;;;;;;4916799;29;20044;-58
2022/09/04 01:30:50;;;;;;;4.32;1.35;;;;;;;;;;4898346;29;20088;-58
2022/09/04 01:33:26;;;;;;;4.78;1.45;;;;;;;;;;4890818;29;20067;-58
2022/09/04 01:35:57;;;;;;;3.10;1.45;;;;;;;;;;4909717;29;20420;-59
2022/09/04 01:38:46;;;;;;;3.42;1.40;;;16.00;99.90;;;;;;4902971;29;20040;-58
2022/09/04 01:41:18;;;;;;;5.38;1.27;;;;;;;;;;4892673;29;20055;-58
2022/09/04 01:43:44;;;;;;;2.28;1.10;;;;;;;;;;4896866;29;20082;-59
2022/09/04 01:46:10;;;;;;;2.80;1.80;;;;;;;;;;4895813;29;20081;-62
2022/09/04 01:48:36;;;;;;;2.63;1.02;;;;;;;;;;4899222;29;20418;-58
2022/09/04 01:51:04;;;;;;;5.00;1.38;;;;;;;;;;4900290;29;20048;-58
2022/09/04 01:53:32;;;;;;;3.38;1.30;;;;;;;;;;4897164;29;20068;-58
2022/09/04 01:56:13;;;;;;;2.88;1.30;;;;;;;;;;4897739;29;20068;-58
2022/09/04 01:58:39;;;;;;;4.13;1.20;;;;;;;;;;4892048;29;20045;-58
2022/09/04 02:01:19;;;;;;;3.10;1.27;;;;;;;;;;4897183;29;20131;-58
2022/09/04 02:03:57;;;;;;;3.42;1.05;;;;;;;;;;4891698;29;20055;-58
2022/09/04 02:06:37;;;;;;;3.38;1.63;;;;;;;;;;4897805;29;20072;-58
2022/09/04 02:09:09;;;;;;;6.32;1.40;;;;;;;;;;4916429;29;20056;-58
2022/09/04 02:11:36;;;;;;;4.32;1.50;;;;;;;;;;4911855;29;20044;-58
2022/09/04 02:14:20;;;;;;;4.82;1.17;;;15.70;99.90;;;;;;4895814;29;20083;-58
2022/09/04 02:16:55;;;;;;;5.90;1.20;;;;;;;;;;4896882;29;20052;-58
2022/09/04 02:19:40;;;;;;;2.60;1.73;;;;;;;;;;4906675;29;20052;-58
2022/09/04 02:22:12;;;;;;;3.80;1.58;;;;;;;;;;4911882;29;20087;-58
2022/09/04 02:24:44;;;;;;;2.67;1.30;;;;;;;;;;4890474;29;20048;-59
2022/09/04 02:27:12;;;;;;;2.70;1.17;;;;;;;;;;4902704;29;20074;-62
2022/09/04 02:29:51;;;;;;;5.15;1.45;;;;;;;;;;4915529;29;20071;-58
2022/09/04 02:32:24;;;;;;;5.47;1.30;;;;;;;;;;4911254;29;20414;-59
2022/09/04 02:35:01;;;;;;;3.50;1.48;;;;;;;;;;4887152;29;20132;-62
2022/09/04 02:37:39;;;;;;;4.50;1.30;;;;;;;;;;4904726;29;20052;-58
2022/09/04 02:40:17;;;;;;;2.45;1.25;;;;;;;;;;4916249;29;20062;-58
2022/09/04 02:42:48;;;;;;;3.55;1.20;;;;;;;;;;4883526;29;20096;-58
2022/09/04 02:45:23;;;;;;;3.95;1.73;;;;;;;;;;4892930;29;20072;-58
2022/09/04 02:47:57;;;;;;;4.78;1.50;;;;;;;;;;4898901;29;20044;-60
2022/09/04 02:51:02;;;;;;;2.88;1.48;;;15.00;99.90;;;;;;4910125;29;20044;-59
2022/09/04 02:53:37;;;;;;;5.32;1.20;;;;;;;;;;4879665;29;20065;-58
2022/09/04 02:56:15;;;;;;;3.75;1.50;;;;;;;;;;4895289;29;20084;-60
2022/09/04 02:58:43;;;;;;;2.55;1.60;;;;;;;;;;4898127;29;20163;-58
2022/09/04 03:01:21;;;;;;;3.70;1.50;;;;;;;;;;4896817;29;20063;-59
2022/09/04 03:04:16;;;;;;;3.95;1.52;;;14.90;99.90;;;;;;4896290;29;20124;-58
2022/09/04 03:06:47;;;;;;;5.20;1.40;;;;;;;;;;4869471;29;20577;-58
2022/09/04 03:09:20;;;;;;;4.00;1.40;;;;;;;;;;4894262;29;20413;-58
2022/09/04 03:11:57;;;;;;;3.90;1.63;;;;;;;;;;4896360;29;20048;-58
2022/09/04 03:14:36;;;;;;;4.07;1.45;;;;;;;;;;4893560;29;20037;-58
2022/09/04 03:17:08;;;;;;;4.20;1.58;;;;;;;;;;4887167;29;20048;-58
2022/09/04 03:19:38;;;;;;;5.35;1.58;;;;;;;;;;4908760;29;20524;-58
2022/09/04 03:22:43;;;;;;;4.85;1.80;;;;;;;;;;4899401;29;20079;-59
2022/09/04 03:25:24;;;;;;;3.33;1.80;;;;;;;;;;4840568;29;20061;-58
2022/09/04 03:27:50;;;;;;;3.65;1.40;;;;;;;;;;4845385;29;20422;-59
2022/09/04 03:30:17;;;;;;;7.45;1.73;;;;;;;;;;4845363;29;20061;-58
2022/09/04 03:32:57;;;;;;;2.85;1.30;;;;;;;;;;4876116;29;20466;-58
2022/09/04 03:35:26;;;;;;;3.03;1.50;;;;;;;;;;4860049;29;20553;-58
2022/09/04 03:38:10;;;;;;;3.83;1.70;;;;;;;;;;4860995;29;20045;-59
2022/09/04 03:40:38;;;;;;;4.60;1.30;;;;;;;;;;4873457;29;20060;-59
2022/09/04 03:43:15;;;;;;;3.40;1.60;;;;;;;;;;4875724;29;20097;-58
2022/09/04 03:46:02;;;;;;;4.60;1.95;;;15.00;99.90;;;;;;4878485;29;20072;-58
2022/09/04 03:48:37;;;;;;;4.25;1.60;;;;;;;;;;4850335;29;20443;-59
2022/09/04 03:51:24;;;;;;;4.30;1.50;;;;;;;;;;4860645;29;20157;-58
2022/09/04 03:54:00;;;;;;;2.45;1.40;;;;;;;;;;4873146;29;20411;-59
2022/09/04 03:56:38;;;;;;;4.22;1.40;;;;;;;;;;4904225;29;20084;-58
2022/09/04 03:59:14;;;;;;;4.03;1.52;;;;;;;;;;4899739;29;20128;-58
2022/09/04 04:02:02;;;;;;;3.17;1.70;;;;;;;;;;4898817;29;20056;-58
2022/09/04 04:04:51;;;;;;;4.70;1.50;;;;;;;;;;4913302;29;20056;-58
2022/09/04 04:07:35;;;;;;;4.35;1.67;;;;;;;;;;4902349;29;20060;-58
2022/09/04 04:10:18;;;;;;;2.50;1.52;;;;;;;;;;4906410;29;20486;-59
2022/09/04 04:13:00;;;;;;;5.93;1.85;;;;;;;;;;4912494;29;20080;-58
2022/09/04 04:15:32;;;;;;;5.00;1.40;;;;;;;;;;4899406;29;20052;-58
2022/09/04 04:18:05;;;;;;;4.13;1.73;;;;;;;;;;4897055;29;20091;-58
2022/09/04 04:20:41;;;;;;;3.83;2.05;;;;;;;;;;4899626;29;20053;-58
2022/09/04 04:23:28;;;;;;;3.80;1.80;;;;;;;;;;4897075;29;20088;-58
2022/09/04 04:26:13;;;;;;;3.88;1.67;;;;;;;;;;4899178;29;20052;-58
2022/09/04 04:28:40;;;;;;;3.67;1.95;;;;;;;;;;4880710;29;20089;-58
2022/09/04 04:31:13;;;;;;;7.55;1.85;;;;;;;;;;4911825;29;20051;-59
2022/09/04 04:33:56;;;;;;;4.88;1.75;;;;;;;;;;4883899;29;20070;-58
2022/09/04 04:36:29;;;;;;;3.17;1.92;;;;;;;;;;4907612;29;20147;-58
2022/09/04 04:39:10;;;;;;;3.92;1.70;;;;;;;;;;4897670;29;20080;-58
2022/09/04 04:48:08;;;;;;;2.97;1.50;;;;;;;;;;4904953;29;20127;-59
2022/09/04 04:50:39;;;;;;;4.32;1.70;;;;;;;;;;4908339;29;20479;-58
2022/09/04 04:53:18;;;;;;;3.20;1.73;;;;;;;;;;4896158;29;20055;-59
2022/09/04 04:55:50;;;;;;;3.08;2.03;;;;;;;;;;4912199;29;20051;-58
2022/09/04 04:58:35;;;;;;;2.85;1.83;;;14.50;99.90;;;;;;4917427;29;20057;-59
2022/09/04 05:01:05;;;;;;;3.63;1.70;;;;;;;;;;4917657;29;20056;-59
2022/09/04 05:04:01;;;;;;;5.25;1.88;;;14.40;99.90;;;;;;4902668;29;20551;-59
2022/09/04 05:06:27;;;;;;;3.67;1.70;;;;;;;;;;4902947;29;20528;-58
2022/09/04 05:09:08;;;;;;;4.40;1.90;;;;;;;;;;4908416;29;20048;-59
2022/09/04 05:11:39;;;;;;;5.43;1.90;;;;;;;;;;4879724;29;20057;-58
2022/09/04 05:14:28;;;;;;;4.32;2.00;;;;;;;;;;4893810;29;20048;-58
2022/09/04 05:17:16;;;;;;;3.30;1.95;;;;;;;;;;4840339;29;20482;-58
2022/09/04 05:19:48;;;;;;;7.20;2.95;;;;;;;;;;4838969;29;20038;-58
2022/09/04 05:25:27;;;;;;;4.32;1.92;;;;;;;;;;4839205;29;20076;-58
2022/09/04 05:28:12;;;;;;;3.60;1.65;;;;;;;;;;4814983;29;20062;-58
2022/09/04 05:30:39;;;;;;;4.15;2.00;;;;;;;;;;4808337;29;20125;-58
2022/09/04 05:33:36;;;;;;;4.70;2.20;;;14.60;99.90;;;;;;4823724;29;20412;-58
2022/09/04 05:36:20;;;;;;;3.97;1.95;;;;;;;;;;4834920;29;20064;-58
2022/09/04 05:38:53;;;;;;;4.65;1.70;;;;;;;;;;4808735;29;20058;-58
2022/09/04 05:41:19;;;;;;;2.90;1.65;;;;;;;;;;4830812;29;20195;-58
2022/09/04 05:44:14;;;;;;;3.53;2.05;;;;;;;;;;4829700;29;20058;-58
2022/09/04 05:47:06;;;;;;;3.45;2.05;;;14.80;99.90;;;;;;4819867;29;20097;-58
2022/09/04 05:49:38;;;;;;;4.90;2.05;;;;;;;;;;4823477;29;20134;-58
2022/09/04 05:52:04;;;;;;;4.68;2.13;;;;;;;;;;4807154;29;20057;-58
2022/09/04 05:54:53;;;;;;;4.38;2.05;;;;;;;;;;4829844;29;20321;-58
2022/09/04 05:57:31;;;;;;;7.13;1.90;;;;;;;;;;4803110;29;20144;-58
2022/09/04 06:00:03;;;;;;;3.33;1.73;;;;;;;;;;4822457;29;20107;-58
2022/09/04 06:02:39;;;;;;;4.57;2.10;;;;;;;;;;4823508;29;20093;-59
2022/09/04 06:05:18;;;;;;;5.07;2.25;;;;;;;;;;4837540;29;20083;-59
2022/09/04 06:07:47;;;;;;;4.32;1.92;;;;;;;;;;4813732;29;20062;-58
2022/09/04 06:10:22;;;;;;;3.33;2.00;;;;;;;;;;4793283;29;20043;-59
2022/09/04 06:13:04;;;;;;;4.50;2.00;;;;;;;;;;4807691;29;20409;-59
2022/09/04 06:15:36;;;;;;;4.55;1.95;;;;;;;;;;4815582;29;20591;-59
2022/09/04 06:18:17;;;;;;;5.78;1.90;;;;;;;;;;4822632;29;20046;-59
2022/09/04 06:20:46;;;;;;;6.82;2.38;;;;;;;;;;4823320;29;20046;-59
2022/09/04 06:23:27;;;;;;;3.28;1.88;;;;;;;;;;4808810;29;20050;-59
2022/09/04 06:25:53;;;;;;;3.60;1.75;;;;;;;;;;4825770;29;20126;-59
2022/09/04 06:28:32;;;;;;;3.83;1.80;;;;;;;;;;4829516;29;20042;-60
2022/09/04 06:30:58;;;;;;;2.42;1.67;;;;;;;;;;4824754;29;20082;-59
2022/09/04 06:33:24;;;;;;;6.57;2.30;;;;;;;;;;4823447;29;20595;-60
2022/09/04 06:35:53;;;;;;;3.75;2.25;;;;;;;;;;4823282;29;20049;-59
2022/09/04 06:38:30;;;;;;;4.50;2.13;;;;;;;;;;4827809;29;20046;-59
2022/09/04 06:41:17;;;;;;;4.20;2.08;;;;;;;;;;4824414;29;20038;-59
2022/09/04 06:43:55;;;;;;;3.22;1.65;;;;;;;;;;4823091;29;20050;-59
2022/09/04 06:46:42;;;;;;;6.82;2.38;;;;;;;;;;4817441;29;20045;-58
2022/09/04 06:49:12;;;;;;;2.83;1.73;;;;;;;;;;4848088;29;20106;-59
2022/09/04 06:51:47;;;;;;;4.30;1.90;;;;;;;;;;4817252;29;20089;-59
2022/09/04 06:54:22;;;;;;;5.60;2.08;;;;;;;;;;4842682;29;20068;-57
2022/09/04 06:56:56;;;;;;;4.68;2.17;;;;;;;;;;4843906;29;20054;-57
2022/09/04 06:59:34;;;;;;;3.78;2.08;;;;;;;;;;4849572;29;20108;-57
2022/09/04 07:02:12;;;;;;;5.90;2.35;;;;;;;;;;4860729;29;20061;-57
2022/09/04 07:04:42;;;;;;;4.90;2.67;;;;;;;;;;4844605;29;20110;-57
2022/09/04 07:07:11;;;;;;;4.13;2.40;;;;;;;;;;4853080;29;20042;-59
2022/09/04 07:09:40;;;;;;;3.28;1.90;;;;;;;;;;4849821;29;20419;-58
2022/09/04 07:12:37;;;;;;;3.08;1.70;;;18.90;99.90;;;;;;4844174;29;20045;-58
2022/09/04 07:15:11;;;;;;;4.45;1.85;;;;;;;;;;4833769;29;20459;-59
2022/09/04 07:17:56;;;;;;;2.72;1.83;;;;;;;;;;4830328;29;20148;-61
2022/09/04 07:20:31;;;;;;;4.13;1.73;;;;;;;;;;4850447;29;20049;-60
2022/09/04 07:23:03;;;;;;;5.35;2.10;;;;;;;;;;4843367;29;20053;-60
2022/09/04 07:25:31;;;;;;;4.93;1.90;;;;;;;;;;4845356;29;20069;-60
2022/09/04 07:28:10;;;;;;;6.25;1.77;;;;;;;;;;4841483;29;20042;-60
2022/09/04 07:30:44;;;;;;;4.43;2.10;;;;;;;;;;4848288;29;20061;-61
2022/09/04 07:33:26;;;;;;;4.88;2.00;;;19.60;99.90;;;;;;4842785;29;20046;-61
2022/09/04 07:36:06;;;;;;;4.95;2.08;;;19.50;99.90;;;;;;4836533;29;20069;-60
2022/09/04 07:38:38;;;;;;;;;;;19.60;99.90;;;;;;4839100;29;20049;-59
2022/09/04 07:41:10;;;;;;;5.05;2.15;;;;;;;;;;4841629;29;19924;-58
2022/09/04 07:43:51;;;;;;;6.40;2.00;;;;;;;;;;4854921;29;20053;-59
2022/09/04 07:46:32;;;;;;;5.75;2.33;;;;;;;;;;4856757;29;20049;-58
2022/09/04 07:48:57;;;;;;;;;;;20.10;99.90;;;;;;4855279;29;20041;-59
2022/09/04 07:51:31;;;;;;;4.57;2.13;;;20.40;99.90;;;;;;4841604;29;20313;-59
2022/09/04 07:54:22;;;;;;;5.90;2.03;;;20.60;99.90;;;;;;4848800;29;20120;-59
2022/09/04 07:56:53;;;;;;;3.47;2.20;;;;;;;;;;4838510;29;20046;-59
2022/09/04 07:59:44;;;;;;;4.63;2.17;;;20.80;99.90;;;;;;4838782;29;20046;-59
2022/09/04 08:02:28;;;;;;;3.38;2.00;;;20.90;99.90;;;;;;4839800;29;20508;-61
2022/09/04 08:04:54;;;;;;;3.85;2.10;;;;;;;;;;4837726;29;20415;-59
2022/09/04 08:07:26;;;;;;;3.35;2.20;;;21.00;99.90;;;;;;4846027;29;20058;-59
2022/09/04 08:10:10;;;;;;;6.10;2.80;;;21.10;99.90;;;;;;4861802;29;20060;-61
2022/09/04 08:12:57;;;;;;;4.38;2.17;;;21.20;99.90;;;;;;4843864;29;20049;-60
2022/09/04 08:15:33;;;;;;;3.53;2.13;;;21.50;99.90;;;;;;4814092;29;20052;-60
2022/09/04 08:18:08;;;;;;;5.85;2.60;;;21.80;99.90;;;;;;4830402;29;20050;-60
2022/09/04 08:20:57;;;;;;;4.78;2.45;;;21.70;99.90;;;;;;4827358;29;20057;-60
2022/09/04 08:23:32;;;;;;;2.83;2.00;;;21.70;99.90;;;;;;4843628;29;20058;-60
2022/09/04 08:26:38;;;;;;;5.18;2.50;;;22.00;99.90;;;;;;4848460;29;20052;-60
2022/09/04 08:29:07;;;;;;;4.47;2.20;;;22.00;99.90;;;;;;4793071;29;20122;-60
2022/09/04 08:31:45;;;;;;;5.63;2.28;;;22.20;99.90;;;;;;4785724;30;20059;-60
2022/09/04 08:34:46;;;;;;;4.10;2.35;;;22.40;99.90;;;;;;4771521;30;20082;-60
2022/09/04 08:37:49;;;;;;;3.65;2.60;;;22.50;99.90;;;;;;4793893;29;20143;-60
2022/09/04 08:40:34;;;;;;;4.68;2.70;;;22.50;99.90;;;;;;4786393;29;20239;-60
2022/09/04 08:43:25;;;;;;;5.65;2.70;;;22.50;99.90;;;;;;4786635;30;20405;-60
2022/09/04 08:46:02;;;;;;;5.38;2.45;;;22.80;99.90;;;;;;4770378;30;20089;-60
2022/09/04 08:49:10;;;;;;;4.72;2.20;;;22.90;99.90;;;;;;4787139;29;20435;-60
2022/09/04 08:51:57;;;;;;;5.13;2.65;;;22.80;99.90;;;;;;4786082;30;20052;-60
2022/09/04 08:54:43;;;;;;;4.60;2.85;;;23.10;99.90;;;;;;4791016;29;20440;-60
2022/09/04 08:57:25;;;;;;;4.32;2.30;;;23.30;99.90;;;;;;4784377;29;20066;-60
2022/09/04 08:59:54;;;;;;;4.22;2.72;;;23.20;99.90;;;;;;4795051;29;20054;-60
2022/09/04 09:02:58;;;;;;;6.47;2.55;;;23.10;99.90;;;;;;4794230;29;20073;-60
2022/09/04 09:05:55;;;;;;;4.20;2.47;;;23.30;99.90;;;;;;4848063;29;20053;-60
2022/09/04 09:08:24;;;;;;;4.15;2.33;;;23.40;99.90;;;;;;4839253;29;20097;-60
2022/09/04 09:11:04;;;;;;;6.05;1.90;;;23.40;99.90;;;;;;4839124;29;20057;-60
2022/09/04 09:14:04;;;;;;;5.40;2.38;;;23.80;99.90;;;;;;4840048;29;20082;-61
2022/09/04 09:16:49;;;;;;;4.30;2.13;;;23.60;99.90;;;;;;4835204;29;20156;-60
2022/09/04 09:19:38;;;;;;;4.00;3.00;;;23.90;99.90;;;;;;4838548;29;20053;-68
2022/09/04 09:22:16;;;;;;;3.77;2.33;;;24.20;99.90;;;;;;4841299;29;20118;-66
2022/09/04 09:25:00;;;;;;;3.78;2.20;;;24.20;99.90;;;;;;4829127;29;20505;-67
2022/09/04 09:28:07;;;;;;;7.10;3.15;;;24.40;99.90;;;;;;4819982;29;20137;-67
2022/09/04 09:30:49;;;;;;;3.58;2.22;;;24.40;99.90;;;;;;4835378;29;20460;-68
2022/09/04 09:34:18;;;;;;;3.95;2.42;;;24.80;99.90;;;;;;4824064;29;20069;-67
2022/09/04 09:37:17;;;;;;;6.07;2.10;;;24.70;99.90;;;;;;4775514;30;20497;-65
2022/09/04 09:40:04;;;;;;;3.78;2.13;;;25.20;99.90;;;;;;4775635;29;20051;-66
2022/09/04 09:42:42;;;;;;;4.45;1.95;;;25.40;99.90;;;;;;4764855;29;20048;-63
2022/09/04 09:45:43;;;;;;;5.75;2.50;;;25.00;99.90;;;;;;4793569;29;20043;-64
2022/09/04 09:48:30;;;;;;;4.45;2.17;;;25.20;99.90;;;;;;4759839;30;20124;-64
2022/09/04 09:51:40;;;;;;;5.72;2.38;;;25.00;99.90;;;;;;4770030;29;20053;-62
2022/09/04 09:54:40;;;;;;;5.20;2.42;;;25.10;99.90;;;;;;4772568;29;20139;-65
2022/09/04 09:57:24;;;;;;;2.88;1.80;;;25.30;99.90;;;;;;4792118;29;20050;-65
2022/09/04 10:00:07;;;;;;;3.53;1.90;;;25.50;99.90;;;;;;4788435;29;20058;-66
2022/09/04 10:02:51;;;;;;;3.55;2.17;;;25.50;99.90;;;;;;4758545;29;20070;-63
2022/09/04 10:05:36;;;;;;;8.57;2.10;;;25.90;99.90;;;;;;4785927;29;20133;-58
2022/09/04 10:08:09;;;;;;;5.57;1.80;;;26.00;99.90;;;;;;4813569;29;20095;-57
2022/09/04 10:10:35;;;;;;;2.30;1.65;;;25.60;99.90;;;;;;4791410;29;20143;-59
2022/09/04 10:13:24;;;;;;;2.72;2.00;;;25.60;99.90;;;;;;4814319;29;20139;-59
2022/09/04 10:16:09;;;;;;;4.60;1.90;;;25.50;99.90;;;;;;4820392;29;20049;-59
2022/09/04 10:18:55;;;;;;;3.90;2.03;;;25.70;99.90;;;;;;4804687;29;20088;-59
2022/09/04 10:21:46;;;;;;;4.43;1.75;;;25.80;99.90;;;;;;4823191;29;20050;-60
2022/09/04 10:24:52;;;;;;;5.68;1.80;;;25.60;99.90;;;;;;4830598;29;20070;-60
2022/09/04 10:27:39;;;;;;;3.95;1.60;;;25.60;99.90;;;;;;4839339;29;20062;-60
2022/09/04 10:30:20;;;;;;;2.40;1.70;;;26.20;99.90;;;;;;4838514;29;20088;-58
2022/09/04 10:32:57;;;;;;;3.25;2.20;;;26.00;99.90;;;;;;4841004;29;20057;-57
2022/09/04 10:35:27;;;;;;;3.78;1.80;;;26.10;99.90;;;;;;4840308;29;20089;-58
2022/09/04 10:37:59;;;;;;;2.88;1.65;;;25.60;99.90;;;;;;4840138;29;20077;-58
2022/09/04 10:40:55;;;;;;;3.95;1.60;;;26.10;99.90;;;;;;4879272;23;20069;-59
2022/09/04 10:44:17;;;;;;;5.75;2.00;;;26.60;99.90;;;;;;4908961;23;20059;-60
2022/09/04 10:46:49;;;;;;;3.75;2.00;;;26.60;99.90;;;;;;4801043;29;20082;-61
2022/09/04 10:49:45;;;;;;;3.25;1.80;;;26.90;99.90;;;;;;4803286;29;20151;-60
2022/09/04 10:52:29;;;;;;;2.53;2.05;;;26.70;99.90;;;;;;4803355;29;20061;-59
2022/09/04 10:55:16;;;;;;;2.50;1.67;;;26.60;99.90;;;;;;4801613;29;20123;-59
2022/09/04 10:57:44;;;;;;;4.90;2.10;;;26.60;99.90;;;;;;4802610;29;20054;-60
2022/09/04 11:00:19;;;;;;;2.70;1.67;;;26.80;99.90;;;;;;4779094;29;20047;-60
2022/09/04 11:03:02;;;;;;;3.60;1.80;;;26.70;99.90;;;;;;4802655;29;20065;-60
2022/09/04 11:05:31;;;;;;;2.85;1.85;;;26.60;99.90;;;;;;4802531;29;20058;-62
2022/09/04 11:08:16;;;;;;;4.43;2.15;;;26.70;99.90;;;;;;4802766;29;20059;-61
2022/09/04 11:11:19;;;;;;;2.00;1.25;;;26.80;99.90;;;;;;4814783;29;20046;-60
2022/09/04 11:14:05;;;;;;;2.85;1.63;;;27.20;99.90;;;;;;4808467;29;20055;-61
2022/09/04 11:17:03;;;;;;;3.10;1.98;;;27.30;99.90;;;;;;4801561;29;20054;-60
2022/09/04 11:19:54;;;;;;;3.38;2.15;;;27.40;99.90;;;;;;4801912;29;20176;-60
2022/09/04 11:22:45;;;;;;;5.35;2.10;;;27.60;99.90;;;;;;4867729;29;20087;-60
2022/09/04 11:25:17;;;;;;;2.85;1.70;;;27.60;99.80;;;;;;4863414;29;20068;-61
2022/09/04 11:27:59;;;;;;;2.90;1.75;;;27.50;99.80;;;;;;4851972;29;20053;-60
2022/09/04 11:30:37;;;;;;;3.10;1.63;;;27.70;99.90;;;;;;4852353;29;20061;-60
2022/09/04 11:33:37;;;;;;;4.57;1.90;;;27.70;99.90;;;;;;4862740;29;20050;-59
2022/09/04 11:36:06;;;;;;;;;;;27.90;99.90;;;;;;4860470;29;20484;-61
2022/09/04 11:38:55;;;;;;;;;;;27.90;99.70;;;;;;4859931;29;20400;-60
2022/09/04 11:41:27;;;;;;;;;;;28.00;99.90;;;;;;4878684;29;19928;-61
2022/09/04 11:44:04;;;;;;;;;;;27.80;98.70;;;;;;4870106;29;19924;-61
2022/09/04 11:46:46;;;;;;;;;;;27.80;99.70;;;;;;4864924;29;20106;-61
2022/09/04 11:49:28;;;;;;;;;;;27.70;99.10;;;;;;4847447;29;20015;-62
2022/09/04 11:52:21;;;;;;;;;;;28.10;99.20;;;;;;4879777;29;19984;-60
2022/09/04 11:55:13;;;;;;;;;;;27.60;98.80;;;;;;4860238;29;19927;-62
2022/09/04 11:57:57;;;;;;;;;;;28.10;98.70;;;;;;4867422;29;19939;-60
2022/09/04 12:00:22;;;;;;;;;;;28.00;98.60;;;;;;4862313;29;20007;-59
2022/09/04 12:02:54;;;;;;;;;;;27.80;99.50;;;;;;4873723;29;20022;-59
2022/09/04 12:05:44;;;;;;;;;;;28.20;99.30;;;;;;4863478;29;19927;-61
2022/09/04 12:08:13;;;;;;;;;;;28.30;98.40;;;;;;4870603;29;19932;-63
2022/09/04 12:10:57;;;;;;;;;;;28.00;98.60;;;;;;4865807;29;19924;-61
2022/09/04 12:13:32;;;;;;;;;;;28.20;99.10;;;;;;4835805;29;19962;-58
2022/09/04 12:16:16;;;;;;;;;;;28.50;98.80;;;;;;4870547;29;19952;-59
2022/09/04 12:18:43;;;;;;;;;;;28.30;98.40;;;;;;4870444;29;19931;-64
2022/09/04 12:21:36;;;;;;;;;;;28.30;99.30;;;;;;4872998;29;20407;-61
2022/09/04 12:24:17;;;;;;;;;;;27.70;98.40;;;;;;4863158;29;19924;-61
2022/09/04 12:26:57;;;;;;;;;;;28.30;98.60;;;;;;4871685;29;19930;-61
2022/09/04 12:29:33;;;;;;;;;;;28.00;97.90;;;;;;4868482;29;19934;-61
2022/09/04 12:31:58;;;;;;;;;;;28.10;98.50;;;;;;4846107;29;19995;-62
2022/09/04 12:34:42;;;;;;;;;;;28.20;99.20;;;;;;4868458;29;19932;-61
2022/09/04 12:37:10;;;;;;;;;;;28.40;98.30;;;;;;4875403;29;19932;-61
2022/09/04 12:39:55;;;;;;;;;;;28.60;98.30;;;;;;4871769;29;19924;-60
2022/09/04 12:42:30;;;;;;;;;;;28.40;98.20;;;;;;4870476;29;19928;-60
2022/09/04 12:45:19;;;;;;;;;;;28.70;98.10;;;;;;4878464;29;19928;-60
2022/09/04 12:47:52;;;;;;;;;;;28.70;98.20;;;;;;4869384;29;20456;-60
2022/09/04 12:50:38;;;;;;;;;;;28.50;98.50;;;;;;4870224;29;20349;-60
2022/09/04 12:53:03;;;;;;;;;;;28.50;98.70;;;;;;4848645;29;20040;-60
2022/09/04 12:55:44;;;;;;;;;;;28.70;98.60;;;;;;4858198;29;20279;-60
2022/09/04 12:58:10;;;;;;;;;;;28.60;98.00;;;;;;4880212;29;19952;-63
2022/09/04 13:00:54;;;;;;;;;;;28.20;98.80;;;;;;4879844;29;19966;-61
2022/09/04 13:03:48;;;;;;;;;;;28.10;98.60;;;;;;4864093;29;20304;-60
2022/09/04 13:06:20;;;;;;;;;;;28.20;98.10;;;;;;4836690;29;19928;-60
2022/09/04 13:08:52;;;;;;;;;;;28.50;98.50;;;;;;4845571;29;19979;-61
2022/09/04 13:11:24;;;;;;;;;;;28.40;98.40;;;;;;4879753;29;20368;-61
2022/09/04 13:14:03;;;;;;;;;;;28.40;98.20;;;;;;4879441;29;19934;-61
2022/09/04 13:16:37;;;;;;;;;;;28.20;98.30;;;;;;4861538;29;20320;-60
2022/09/04 13:19:07;;;;;;;;;;;28.80;98.40;;;;;;4863106;29;19968;-60
2022/09/04 13:21:47;;;;;;;;;;;28.40;97.90;;;;;;4862082;29;19963;-60
2022/09/04 13:24:19;;;;;;;;;;;29.00;97.70;;;;;;4847473;29;19931;-61
2022/09/04 13:26:44;;;;;;;;;;;28.60;98.40;;;;;;4873874;29;20472;-60
2022/09/04 13:29:16;;;;;;;;;;;28.50;99.10;;;;;;4860863;29;20015;-64
2022/09/04 13:31:49;;;;;;;;;;;28.40;99.20;;;;;;4860153;29;19973;-60
2022/09/04 13:34:19;;;;;;;;;;;28.50;99.10;;;;;;4861939;29;19924;-60
2022/09/04 13:37:05;;;;;;;;;;;27.90;98.80;;;;;;4876277;29;19996;-61
2022/09/04 13:39:34;;;;;;;;;;;28.30;98.40;;;;;;4878650;29;19924;-60
2022/09/04 13:42:07;;;;;;;;;;;27.90;98.60;;;;;;4862952;29;20007;-60
2022/09/04 13:44:46;;;;;;;;;;;27.70;98.50;;;;;;4862493;29;19923;-60
2022/09/04 13:47:20;;;;;;;;;;;27.80;98.20;;;;;;4878677;29;19934;-61
2022/09/04 13:49:48;;;;;;;;;;;27.90;98.70;;;;;;4879160;29;19928;-60
2022/09/04 13:52:16;;;;;;;;;;;28.10;99.40;;;;;;4871721;29;19999;-60
2022/09/04 13:54:45;;;;;;;;;;;28.00;99.10;;;;;;4861044;29;19924;-60
2022/09/04 13:57:25;;;;;;;;;;;28.20;98.60;;;;;;4876798;29;19936;-63
2022/09/04 13:59:54;;;;;;;;;;;28.30;98.60;;;;;;4861878;29;19923;-61
2022/09/04 14:02:23;;;;;;;;;;;28.10;98.30;;;;;;4879077;29;19927;-60
2022/09/04 14:05:00;;;;;;;;;;;27.90;98.80;;;;;;4877771;29;19931;-61
2022/09/04 14:07:28;;;;;;;;;;;28.10;98.40;;;;;;4862583;29;20424;-60
2022/09/04 14:09:57;;;;;;;;;;;28.50;99.30;;;;;;4877079;29;19930;-61
2022/09/04 14:12:30;;;;;;;;;;;28.50;99.30;;;;;;4860559;29;19944;-60
2022/09/04 14:15:10;;;;;;;;;;;27.80;98.10;;;;;;4860739;29;19984;-60
2022/09/04 14:17:41;;;;;;;;;;;28.40;98.20;;;;;;4879218;29;19927;-60
2022/09/04 14:20:33;;;;;;;;;;;28.70;98.20;;;;;;4877700;29;19935;-60
2022/09/04 14:23:19;;;;;;;;;;;28.40;97.80;;;;;;4857471;29;19927;-61
2022/09/04 14:25:50;;;;;;;;;;;28.30;98.00;;;;;;4873675;29;19972;-60
2022/09/04 14:28:28;;;;;;;;;;;29.60;98.80;;;;;;4862110;29;19963;-60
2022/09/04 14:31:05;;;;;;;;;;;28.30;97.50;;;;;;4878365;29;19946;-60
2022/09/04 14:33:34;;;;;;;;;;;28.00;97.50;;;;;;4878277;29;19967;-60
2022/09/04 14:36:06;;;;;;;;;;;28.10;97.60;;;;;;4878314;29;19923;-60
2022/09/04 14:38:33;;;;;;;;;;;27.80;98.60;;;;;;4878436;29;20023;-60
2022/09/04 14:40:59;;;;;;;;;;;28.10;98.60;;;;;;4877974;29;19947;-61
2022/09/04 14:43:48;;;;;;;;;;;28.20;98.90;;;;;;4861802;29;20387;-60
2022/09/04 14:46:19;;;;;;;;;;;27.50;97.90;;;;;;4868828;29;19931;-61
2022/09/04 14:48:45;;;;;;;;;;;27.90;98.70;;;;;;4844498;29;19931;-61
2022/09/04 14:51:20;;;;;;;;;;;28.30;98.90;;;;;;4858400;29;19975;-61
2022/09/04 14:53:48;;;;;;;;;;;28.00;98.00;;;;;;4865696;29;19970;-60
2022/09/04 14:56:19;;;;;;;;;;;28.20;98.70;;;;;;4865974;29;19927;-60
2022/09/04 14:58:47;;;;;;;;;;;28.10;98.70;;;;;;4878611;29;19924;-60
2022/09/04 15:01:18;;;;;;;;;;;28.10;98.90;;;;;;4876824;29;20369;-60
2022/09/04 15:04:02;;;;;;;;;;;27.90;98.10;;;;;;4877470;29;19923;-60
2022/09/04 15:06:31;;;;;;;;;;;28.30;97.70;;;;;;4878435;29;20289;-60
2022/09/04 15:08:56;;;;;;;;;;;28.40;97.70;;;;;;4876907;29;19924;-61
2022/09/04 15:11:29;;;;;;;;;;;28.30;98.20;;;;;;4859658;29;19930;-60
2022/09/04 15:14:03;;;;;;;;;;;28.40;97.60;;;;;;4872848;29;19931;-60